Time;durP1;ratioP1;P1;durP2;ratioP2;P2;SDS_P1;SDS_P2;PMS_P1;PMS_P2;Temp;Humidity;BMP_temperature;BMP_pressure;BME280_temperature;BME280_humidity;BME280_pressure;Samples;Min_cycle;Max_cycle;Signal;HPM_P1;HPM_P2
2022/02/15 00:00:26;;;;;;;;;;;8.00;1.00;;;;;;5047143;28;19928;-80
2022/02/15 00:02:51;;;;;;;;;;;8.00;1.00;;;;;;5042043;28;19935;-80
2022/02/15 00:05:17;;;;;;;;;;;8.00;1.00;;;;;;5036744;28;19913;-80
2022/02/15 00:07:42;;;;;;;;;;;8.00;1.00;;;;;;5032726;28;19936;-81
2022/02/15 00:10:08;;;;;;;;;;;7.90;1.00;;;;;;5047102;28;19917;-80
2022/02/15 00:12:35;;;;;;;;;;;7.90;1.00;;;;;;5033271;28;19916;-80
2022/02/15 00:15:00;;;;;;;;;;;8.00;1.00;;;;;;5028175;28;19909;-80
2022/02/15 00:17:26;;;;;;;;;;;7.90;1.00;;;;;;5027271;28;19952;-80
2022/02/15 00:19:51;;;;;;;;;;;7.90;1.00;;;;;;5026555;28;19952;-81
2022/02/15 00:22:17;;;;;;;;;;;7.90;1.00;;;;;;5036191;28;19936;-80
2022/02/15 00:24:42;;;;;;;;;;;7.90;1.00;;;;;;5047224;28;20010;-80
2022/02/15 00:27:08;;;;;;;;;;;7.90;1.00;;;;;;5046770;28;19913;-80
2022/02/15 00:29:33;;;;;;;;;;;7.90;1.00;;;;;;5047082;28;19909;-80
2022/02/15 00:31:59;;;;;;;;;;;7.90;1.00;;;;;;5028898;28;20328;-80
2022/02/15 00:34:24;;;;;;;;;;;7.80;1.00;;;;;;5026753;28;19935;-81
2022/02/15 00:36:50;;;;;;;;;;;7.80;1.00;;;;;;5031582;28;20413;-80
2022/02/15 00:39:15;;;;;;;;;;;7.80;1.00;;;;;;5045860;28;19913;-80
2022/02/15 00:41:41;;;;;;;;;;;7.80;1.00;;;;;;5044289;28;20336;-80
2022/02/15 00:44:06;;;;;;;;;;;7.80;1.00;;;;;;5026106;28;19928;-80
2022/02/15 00:46:32;;;;;;;;;;;7.80;1.00;;;;;;5026249;28;19944;-80
2022/02/15 00:48:58;;;;;;;;;;;7.80;1.00;;;;;;5025359;28;19917;-80
2022/02/15 00:51:23;;;;;;;;;;;7.80;1.00;;;;;;5033640;28;19913;-80
2022/02/15 00:53:49;;;;;;;;;;;7.80;1.00;;;;;;5025164;28;19940;-79
2022/02/15 00:56:14;;;;;;;;;;;7.80;1.00;;;;;;5030958;28;19917;-80
2022/02/15 00:58:40;;;;;;;;;;;7.80;35.70;;;;;;5028375;28;20282;-80
2022/02/15 01:01:05;;;;;;;;;;;7.70;77.30;;;;;;5039374;28;19928;-80
2022/02/15 01:03:31;;;;;;;;;;;7.80;99.90;;;;;;5037251;28;19917;-81
2022/02/15 01:05:57;;;;;;;;;;;7.80;99.90;;;;;;5034278;28;19913;-81
2022/02/15 01:08:23;;;;;;;;;;;7.70;99.90;;;;;;5031011;28;20282;-81
2022/02/15 01:10:49;;;;;;;;;;;7.70;97.20;;;;;;5027048;28;19940;-81
2022/02/15 01:13:14;;;;;;;;;;;7.80;58.40;;;;;;5023978;28;19921;-81
2022/02/15 01:15:40;;;;;;;;;;;7.80;93.50;;;;;;5026900;28;19924;-81
2022/02/15 01:18:05;;;;;;;;;;;7.80;87.60;;;;;;5022748;28;19919;-81
2022/02/15 01:20:31;;;;;;;;;;;7.80;94.80;;;;;;5047174;28;20295;-82
2022/02/15 01:22:56;;;;;;;;;;;7.80;23.20;;;;;;5031820;28;19917;-82
2022/02/15 01:25:23;;;;;;;;;;;7.80;1.00;;;;;;5028710;28;19913;-81
2022/02/15 01:27:49;;;;;;;;;;;7.80;1.00;;;;;;5033236;28;19956;-81
2022/02/15 01:30:15;;;;;;;;;;;7.70;1.00;;;;;;5027827;28;19921;-82
2022/02/15 01:32:40;;;;;;;;;;;7.70;1.00;;;;;;5025799;28;21557;-81
2022/02/15 01:35:06;;;;;;;;;;;7.70;1.00;;;;;;5025495;28;19959;-82
2022/02/15 01:37:31;;;;;;;;;;;7.70;1.00;;;;;;5026536;28;19936;-81
2022/02/15 01:39:57;;;;;;;;;;;7.70;1.00;;;;;;5027013;28;19997;-81
2022/02/15 01:42:22;;;;;;;;;;;7.70;1.00;;;;;;5027336;28;20018;-81
2022/02/15 01:44:48;;;;;;;;;;;7.70;1.00;;;;;;5028381;28;19917;-81
2022/02/15 01:47:20;;;;;;;;;;;7.70;1.00;;;;;;5027585;28;20012;-81
2022/02/15 01:49:46;;;;;;;;;;;7.60;1.00;;;;;;5027647;28;19968;-81
2022/02/15 01:52:11;;;;;;;;;;;7.60;1.00;;;;;;5037371;28;19910;-81
2022/02/15 01:54:37;;;;;;;;;;;7.60;1.00;;;;;;5029719;28;19917;-81
2022/02/15 01:57:02;;;;;;;;;;;7.60;43.60;;;;;;5029909;28;19910;-81
2022/02/15 01:59:28;;;;;;;;;;;7.50;99.90;;;;;;5031485;28;19925;-82
2022/02/15 02:01:53;;;;;;;;;;;7.50;99.90;;;;;;5015852;28;20008;-81
2022/02/15 02:07:03;;;;;;;;;;;7.60;99.90;;;;;;5029021;28;20432;-81
2022/02/15 02:09:28;;;;;;;;;;;7.60;99.90;;;;;;5032503;28;19952;-81
2022/02/15 02:11:54;;;;;;;;;;;7.50;99.90;;;;;;5030027;28;20005;-81
2022/02/15 02:14:19;;;;;;;;;;;7.60;99.90;;;;;;5029467;28;20322;-81
2022/02/15 02:16:45;;;;;;;;;;;7.60;99.90;;;;;;5028569;28;19913;-81
2022/02/15 02:19:10;;;;;;;;;;;7.50;99.90;;;;;;5026980;28;20005;-81
2022/02/15 02:21:37;;;;;;;;;;;7.50;99.90;;;;;;5028985;28;19913;-81
2022/02/15 02:24:02;;;;;;;;;;;7.60;99.90;;;;;;5030055;28;19953;-81
2022/02/15 02:26:28;;;;;;;;;;;7.50;99.90;;;;;;5030244;28;19925;-81
2022/02/15 02:28:54;;;;;;;;;;;7.50;99.90;;;;;;5038639;28;19964;-81
2022/02/15 02:31:20;;;;;;;;;;;7.50;99.90;;;;;;5031710;28;20004;-81
2022/02/15 02:33:45;;;;;;;;;;;7.50;99.90;;;;;;5028773;28;20277;-81
2022/02/15 02:36:11;;;;;;;;;;;7.50;99.90;;;;;;5030456;28;19910;-81
2022/02/15 02:38:36;;;;;;;;;;;7.50;99.90;;;;;;5027834;28;19921;-81
2022/02/15 02:41:01;;;;;;;;;;;7.50;99.90;;;;;;5029144;28;19916;-82
2022/02/15 02:43:28;;;;;;;;;;;7.50;99.90;;;;;;5027558;28;19920;-81
2022/02/15 02:45:53;;;;;;;;;;;7.50;99.90;;;;;;5029431;28;19909;-81
2022/02/15 02:48:19;;;;;;;;;;;7.50;99.90;;;;;;5029956;28;20008;-82
2022/02/15 02:50:44;;;;;;;;;;;7.50;99.90;;;;;;5031757;28;19936;-82
2022/02/15 02:53:11;;;;;;;;;;;7.50;99.90;;;;;;5032338;28;20454;-81
2022/02/15 02:55:37;;;;;;;;;;;7.50;99.90;;;;;;5037384;28;19913;-81
2022/02/15 02:58:02;;;;;;;;;;;7.50;99.90;;;;;;5039563;28;19910;-81
2022/02/15 03:00:28;;;;;;;;;;;7.40;99.90;;;;;;5030848;28;19913;-82
2022/02/15 03:02:53;;;;;;;;;;;7.50;1.00;;;;;;5030595;28;19996;-82
2022/02/15 03:05:19;;;;;;;;;;;7.40;1.00;;;;;;5038266;28;19979;-81
2022/02/15 03:07:44;;;;;;;;;;;7.40;1.00;;;;;;5032677;28;19909;-81
2022/02/15 03:10:10;;;;;;;;;;;7.40;1.00;;;;;;5033864;28;19909;-82
2022/02/15 03:12:35;;;;;;;;;;;7.40;99.90;;;;;;5033747;28;19909;-81
2022/02/15 03:15:01;;;;;;;;;;;7.40;99.90;;;;;;5033662;28;20380;-81
2022/02/15 03:17:26;;;;;;;;;;;7.40;99.90;;;;;;5040089;28;19909;-81
2022/02/15 03:19:52;;;;;;;;;;;7.40;99.90;;;;;;5033871;28;19967;-82
2022/02/15 03:22:19;;;;;;;;;;;7.40;1.00;;;;;;5030188;28;19923;-81
2022/02/15 03:24:45;;;;;;;;;;;7.40;1.00;;;;;;5032543;28;20000;-81
2022/02/15 03:27:10;;;;;;;;;;;7.40;1.00;;;;;;5031683;28;19977;-82
2022/02/15 03:29:36;;;;;;;;;;;7.40;1.00;;;;;;5041859;28;19975;-82
2022/02/15 03:32:01;;;;;;;;;;;7.40;1.00;;;;;;5038006;28;19913;-81
2022/02/15 03:34:27;;;;;;;;;;;7.40;1.00;;;;;;5040094;28;19924;-81
2022/02/15 03:36:52;;;;;;;;;;;7.30;1.00;;;;;;5037174;28;20024;-81
2022/02/15 03:39:18;;;;;;;;;;;7.30;99.90;;;;;;5034851;28;19948;-81
2022/02/15 03:44:27;;;;;;;;;;;7.30;1.00;;;;;;5030807;28;19971;-81
2022/02/15 03:46:53;;;;;;;;;;;7.30;1.00;;;;;;5035210;28;19980;-80
2022/02/15 03:49:19;;;;;;;;;;;7.30;1.00;;;;;;5038136;28;19913;-80
2022/02/15 03:51:46;;;;;;;;;;;7.30;91.30;;;;;;5035322;28;19945;-81
2022/02/15 03:54:11;;;;;;;;;;;7.30;99.90;;;;;;5035037;28;19913;-81
2022/02/15 03:56:37;;;;;;;;;;;7.30;99.90;;;;;;5042683;28;20364;-81
2022/02/15 03:59:03;;;;;;;;;;;7.30;99.90;;;;;;5037669;28;19975;-81
2022/02/15 04:01:28;;;;;;;;;;;7.20;1.00;;;;;;5034185;28;19940;-81
2022/02/15 04:03:54;;;;;;;;;;;7.20;1.00;;;;;;5034838;28;19952;-81
2022/02/15 04:06:19;;;;;;;;;;;7.20;1.00;;;;;;5036980;28;19913;-81
2022/02/15 04:08:45;;;;;;;;;;;7.20;1.00;;;;;;5035954;28;19924;-80
2022/02/15 04:11:12;;;;;;;;;;;7.20;99.90;;;;;;5034969;28;19913;-82
2022/02/15 04:13:38;;;;;;;;;;;7.20;99.90;;;;;;5034358;28;19921;-81
2022/02/15 04:16:03;;;;;;;;;;;7.20;99.90;;;;;;5035248;28;19953;-81
2022/02/15 04:18:29;;;;;;;;;;;7.20;99.90;;;;;;5036711;28;19931;-82
2022/02/15 04:20:54;;;;;;;;;;;7.10;1.00;;;;;;5030790;28;19914;-81
2022/02/15 04:23:20;;;;;;;;;;;7.10;1.00;;;;;;5039193;28;19990;-80
2022/02/15 04:25:45;;;;;;;;;;;7.10;1.00;;;;;;5040542;28;19935;-81
2022/02/15 04:28:11;;;;;;;;;;;7.00;99.90;;;;;;5036950;28;20021;-81
2022/02/15 04:30:41;;;;;;;;;;;7.00;99.90;;;;;;5048909;28;19916;-80
2022/02/15 04:33:07;;;;;;;;;;;7.00;1.00;;;;;;5025862;28;19914;-81
2022/02/15 04:35:32;;;;;;;;;;;7.00;1.00;;;;;;5026942;28;19916;-81
2022/02/15 04:37:58;;;;;;;;;;;7.00;1.00;;;;;;5035449;28;20377;-81
2022/02/15 04:40:24;;;;;;;;;;;7.00;1.00;;;;;;5045434;28;19980;-81
2022/02/15 04:42:49;;;;;;;;;;;7.00;1.00;;;;;;5045077;28;19917;-81
2022/02/15 04:45:15;;;;;;;;;;;7.00;1.00;;;;;;5041816;28;19913;-81
2022/02/15 04:47:41;;;;;;;;;;;7.00;1.00;;;;;;5042997;28;19909;-81
2022/02/15 04:50:07;;;;;;;;;;;7.00;1.00;;;;;;5031329;28;19921;-82
2022/02/15 04:52:33;;;;;;;;;;;7.00;1.00;;;;;;5023581;28;19909;-81
2022/02/15 04:54:58;;;;;;;;;;;7.00;1.00;;;;;;5047871;28;19975;-81
2022/02/15 04:57:24;;;;;;;;;;;6.90;1.00;;;;;;5025105;28;20266;-81
2022/02/15 04:59:49;;;;;;;;;;;6.90;1.00;;;;;;5028165;28;19920;-81
2022/02/15 05:02:15;;;;;;;;;;;6.90;24.30;;;;;;5030046;28;20498;-81
2022/02/15 05:04:49;;;;;;;;;;;6.90;99.90;;;;;;5034879;28;19941;-81
2022/02/15 05:07:19;;;;;;;;;;;6.90;99.90;;;;;;5024482;28;19921;-82
2022/02/15 05:09:44;;;;;;;;;;;6.90;99.90;;;;;;5032206;28;19958;-81
2022/02/15 05:12:10;;;;;;;;;;;6.90;99.90;;;;;;5044585;28;19940;-81
2022/02/15 05:14:36;;;;;;;;;;;6.90;99.90;;;;;;5033722;28;19913;-81
2022/02/15 05:17:01;;;;;;;;;;;6.90;99.90;;;;;;5027228;28;19953;-81
2022/02/15 05:19:27;;;;;;;;;;;6.90;99.90;;;;;;5043459;28;20124;-81
2022/02/15 05:21:52;;;;;;;;;;;6.90;99.90;;;;;;5043176;28;20393;-82
2022/02/15 05:24:18;;;;;;;;;;;6.90;99.90;;;;;;5042667;28;20358;-81
2022/02/15 05:26:43;;;;;;;;;;;6.80;99.90;;;;;;5038658;28;19913;-81
2022/02/15 05:29:09;;;;;;;;;;;6.80;99.90;;;;;;5032183;28;20285;-82
2022/02/15 05:31:35;;;;;;;;;;;6.80;99.90;;;;;;5053802;28;19928;-81
2022/02/15 05:34:00;;;;;;;;;;;6.80;99.90;;;;;;5038521;28;19914;-81
2022/02/15 05:36:26;;;;;;;;;;;6.80;99.90;;;;;;5039092;28;19909;-81
2022/02/15 05:38:51;;;;;;;;;;;6.80;99.90;;;;;;5045347;28;19917;-81
2022/02/15 05:41:16;;;;;;;;;;;6.80;99.90;;;;;;5029276;28;20004;-81
2022/02/15 05:43:42;;;;;;;;;;;6.80;99.90;;;;;;5043112;28;20271;-81
2022/02/15 05:46:07;;;;;;;;;;;6.80;99.90;;;;;;5045560;28;19924;-81
2022/02/15 05:48:33;;;;;;;;;;;6.80;99.90;;;;;;5034989;28;19913;-81
2022/02/15 05:50:58;;;;;;;;;;;6.80;99.90;;;;;;5043582;28;19913;-81
2022/02/15 05:53:28;;;;;;;;;;;6.80;99.90;;;;;;5028012;28;20010;-81
2022/02/15 05:55:55;;;;;;;;;;;6.80;99.90;;;;;;5032115;28;19920;-81
2022/02/15 05:58:22;;;;;;;;;;;6.80;99.90;;;;;;5038863;28;19921;-81
2022/02/15 06:00:48;;;;;;;;;;;6.80;99.90;;;;;;5025188;28;20343;-81
2022/02/15 06:05:58;;;;;;;;;;;6.80;99.90;;;;;;5025225;28;19925;-81
2022/02/15 06:08:24;;;;;;;;;;;6.80;99.90;;;;;;5029870;28;19917;-81
2022/02/15 06:10:49;;;;;;;;;;;6.80;99.90;;;;;;5044637;28;19913;-81
2022/02/15 06:13:15;;;;;;;;;;;6.80;99.90;;;;;;5046254;28;19985;-82
2022/02/15 06:15:41;;;;;;;;;;;6.80;99.90;;;;;;5051638;28;19909;-81
2022/02/15 06:18:07;;;;;;;;;;;6.80;99.90;;;;;;5043938;28;19909;-81
2022/02/15 06:20:32;;;;;;;;;;;6.80;99.90;;;;;;5027295;28;19910;-81
2022/02/15 06:22:57;;;;;;;;;;;6.80;1.00;;;;;;5026413;28;19928;-81
2022/02/15 06:25:23;;;;;;;;;;;6.80;1.00;;;;;;5028660;28;19925;-82
2022/02/15 06:27:48;;;;;;;;;;;6.80;1.00;;;;;;5023828;28;19972;-82
2022/02/15 06:30:14;;;;;;;;;;;6.80;1.00;;;;;;5035272;28;19924;-81
2022/02/15 06:32:39;;;;;;;;;;;6.80;1.00;;;;;;5034936;28;20321;-82
2022/02/15 06:35:05;;;;;;;;;;;6.80;1.00;;;;;;5036095;28;19920;-81
2022/02/15 06:37:31;;;;;;;;;;;6.80;1.00;;;;;;5032349;28;20390;-81
2022/02/15 06:39:56;;;;;;;;;;;6.80;1.00;;;;;;5031986;28;20038;-82
2022/02/15 06:42:22;;;;;;;;;;;6.90;1.00;;;;;;5029687;28;20258;-81
2022/02/15 06:44:47;;;;;;;;;;;7.00;1.00;;;;;;5028953;28;19917;-82
2022/02/15 06:47:12;;;;;;;;;;;7.00;1.00;;;;;;5038531;28;20312;-82
2022/02/15 06:49:38;;;;;;;;;;;7.00;99.90;;;;;;5035647;28;19920;-83
2022/02/15 06:52:04;;;;;;;;;;;7.00;99.90;;;;;;5030495;28;19913;-82
2022/02/15 06:54:29;;;;;;;;;;;7.10;99.90;;;;;;5031534;28;19913;-82
2022/02/15 06:56:55;;;;;;;;;;;7.10;99.90;;;;;;5028317;28;19917;-83
2022/02/15 06:59:21;;;;;;;;;;;7.10;99.90;;;;;;5038291;28;20519;-83
2022/02/15 07:01:46;;;;;;;;;;;7.10;99.90;;;;;;5042403;28;19941;-83
2022/02/15 07:04:12;;;;;;;;;;;7.10;99.90;;;;;;5043369;28;21280;-83
2022/02/15 07:06:38;;;;;;;;;;;7.10;99.90;;;;;;5043602;28;19963;-83
2022/02/15 07:09:04;;;;;;;;;;;7.10;99.90;;;;;;5054455;28;20273;-83
2022/02/15 07:11:30;;;;;;;;;;;7.10;99.90;;;;;;5046833;28;19996;-84
2022/02/15 07:13:55;;;;;;;;;;;7.10;99.90;;;;;;5041342;28;20047;-84
2022/02/15 07:16:21;;;;;;;;;;;7.10;99.90;;;;;;5045157;28;19913;-82
2022/02/15 07:18:46;;;;;;;;;;;7.10;99.90;;;;;;5039609;28;19918;-83
2022/02/15 07:21:12;;;;;;;;;;;7.10;99.90;;;;;;5047372;28;19914;-83
2022/02/15 07:23:37;;;;;;;;;;;7.20;99.90;;;;;;5041898;28;19967;-83
2022/02/15 07:26:03;;;;;;;;;;;7.20;99.90;;;;;;5044752;28;19913;-83
2022/02/15 07:28:28;;;;;;;;;;;7.20;99.90;;;;;;5047101;28;19939;-83
2022/02/15 07:30:54;;;;;;;;;;;7.20;99.90;;;;;;5042407;28;19967;-83
2022/02/15 07:33:20;;;;;;;;;;;7.20;99.90;;;;;;5045434;28;19920;-83
2022/02/15 07:35:46;;;;;;;;;;;7.20;99.90;;;;;;5041543;28;19913;-82
2022/02/15 07:38:11;;;;;;;;;;;7.30;99.90;;;;;;5053000;28;19920;-83
2022/02/15 07:40:37;;;;;;;;;;;7.30;99.90;;;;;;5048100;28;19921;-83
2022/02/15 07:43:02;;;;;;;;;;;7.40;99.90;;;;;;5048455;28;19957;-83
2022/02/15 07:45:28;;;;;;;;;;;7.50;33.10;;;;;;5047990;28;19920;-82
2022/02/15 07:47:53;;;;;;;;;;;7.50;1.00;;;;;;5047502;28;19945;-83
2022/02/15 07:50:20;;;;;;;;;;;7.50;1.00;;;;;;5054056;28;19958;-83
2022/02/15 07:52:47;;;;;;;;;;;7.50;1.00;;;;;;5051739;28;19913;-84
2022/02/15 07:55:13;;;;;;;;;;;7.50;1.00;;;;;;5050865;28;19947;-83
2022/02/15 07:57:38;;;;;;;;;;;7.50;1.00;;;;;;5046900;28;19917;-84
2022/02/15 08:00:05;;;;;;;;;;;7.50;99.90;;;;;;5048442;28;19913;-83
2022/02/15 08:02:30;;;;;;;;;;;7.50;99.90;;;;;;5041854;28;19980;-82
2022/02/15 08:04:56;;;;;;;;;;;7.50;99.90;;;;;;5048083;28;19913;-83
2022/02/15 08:07:21;;;;;;;;;;;7.50;31.90;;;;;;5050273;28;19943;-83
2022/02/15 08:09:47;;;;;;;;;;;7.50;1.00;;;;;;5046622;28;19913;-83
2022/02/15 08:12:17;;;;;;;;;;;7.50;1.00;;;;;;5049638;28;19931;-84
2022/02/15 08:14:46;;;;;;;;;;;7.50;1.00;;;;;;5047607;28;19944;-84
2022/02/15 08:17:11;;;;;;;;;;;7.60;99.90;;;;;;5060274;28;19918;-83
2022/02/15 08:19:37;;;;;;;;;;;7.80;5.70;;;;;;5045166;28;19940;-84
2022/02/15 08:22:02;;;;;;;;;;;8.00;99.90;;;;;;5052363;28;19968;-84
2022/02/15 08:24:29;;;;;;;;;;;8.10;1.00;;;;;;5037890;28;19918;-83
2022/02/15 08:26:55;;;;;;;;;;;8.50;9.60;;;;;;5052625;28;19909;-84
2022/02/15 08:29:21;;;;;;;;;;;8.90;1.00;;;;;;5050692;28;19960;-83
2022/02/15 08:31:46;;;;;;;;;;;9.30;1.00;;;;;;5051468;28;19913;-84
2022/02/15 08:34:12;;;;;;;;;;;9.40;51.30;;;;;;5058802;28;19913;-83
2022/02/15 08:36:37;;;;;;;;;;;9.40;1.00;;;;;;5044702;28;19944;-84
2022/02/15 08:39:03;;;;;;;;;;;9.40;1.00;;;;;;5041895;28;19947;-84
2022/02/15 08:41:29;;;;;;;;;;;9.40;99.90;;;;;;5050481;28;20277;-84
2022/02/15 08:43:54;;;;;;;;;;;9.20;99.90;;;;;;5038936;28;19962;-83
2022/02/15 08:46:20;;;;;;;;;;;9.10;99.90;;;;;;5025705;28;19929;-85
2022/02/15 08:48:45;;;;;;;;;;;9.00;99.90;;;;;;5026219;28;19909;-83
2022/02/15 08:51:11;;;;;;;;;;;8.90;99.90;;;;;;5044600;28;19921;-84
2022/02/15 08:53:38;;;;;;;;;;;8.70;99.90;;;;;;5041396;28;19919;-84
2022/02/15 08:56:04;;;;;;;;;;;8.50;99.90;;;;;;5022024;28;19910;-83
2022/02/15 08:58:30;;;;;;;;;;;8.40;1.00;;;;;;5023797;28;19921;-83
2022/02/15 09:00:59;;;;;;;;;;;8.30;1.00;;;;;;5032379;28;19941;-84
2022/02/15 09:03:25;;;;;;;;;;;8.30;1.00;;;;;;5024204;28;19917;-83
2022/02/15 09:05:50;;;;;;;;;;;8.20;1.00;;;;;;5026291;28;19913;-83
2022/02/15 09:08:16;;;;;;;;;;;8.10;99.90;;;;;;5036822;28;19968;-84
2022/02/15 09:10:41;;;;;;;;;;;8.10;1.00;;;;;;5033383;28;19952;-86
2022/02/15 09:13:07;;;;;;;;;;;8.10;1.00;;;;;;5041545;28;19940;-83
2022/02/15 09:15:32;;;;;;;;;;;8.10;22.70;;;;;;5042277;28;19917;-83
2022/02/15 09:17:58;;;;;;;;;;;8.10;5.60;;;;;;5027818;28;19957;-83
2022/02/15 09:20:24;;;;;;;;;;;8.30;1.00;;;;;;5027670;28;19944;-84
2022/02/15 09:22:50;;;;;;;;;;;8.60;1.00;;;;;;5021732;28;19917;-83
2022/02/15 09:25:16;;;;;;;;;;;9.00;99.90;;;;;;5030611;28;19920;-83
2022/02/15 09:27:42;;;;;;;;;;;9.20;1.00;;;;;;5031576;28;20346;-84
2022/02/15 09:30:08;;;;;;;;;;;9.40;99.90;;;;;;5041958;28;19971;-83
2022/02/15 09:32:34;;;;;;;;;;;9.60;99.90;;;;;;5026005;28;19918;-83
2022/02/15 09:34:59;;;;;;;;;;;9.80;99.90;;;;;;5027536;28;19918;-84
2022/02/15 09:37:25;;;;;;;;;;;10.00;99.90;;;;;;5033011;28;19908;-84
2022/02/15 09:39:50;;;;;;;;;;;10.60;1.00;;;;;;5026102;28;19959;-83
2022/02/15 09:42:16;;;;;;;;;;;11.00;1.00;;;;;;5029680;28;20258;-84
2022/02/15 09:44:42;;;;;;;;;;;11.20;1.00;;;;;;5031534;28;19952;-84
2022/02/15 09:47:08;;;;;;;;;;;11.80;1.00;;;;;;5029861;28;19924;-84
2022/02/15 09:49:50;;;;;;;;;;;12.00;1.00;;;;;;5030661;28;19913;-84
2022/02/15 09:52:17;;;;;;;;;;;12.10;1.00;;;;;;5037401;28;19917;-84
2022/02/15 09:54:45;;;;;;;;;;;13.40;1.00;;;;;;5030822;28;19967;-83
2022/02/15 09:57:11;;;;;;;;;;;13.60;1.00;;;;;;5041499;28;20008;-84
2022/02/15 09:59:37;;;;;;;;;;;13.40;1.00;;;;;;5026865;28;19914;-85
2022/02/15 10:02:04;;;;;;;;;;;14.00;1.00;;;;;;5025626;28;19917;-83
2022/02/15 10:04:34;;;;;;;;;;;15.00;1.00;;;;;;5028468;28;19924;-84
2022/02/15 10:07:00;;;;;;;;;;;14.40;1.00;;;;;;5039464;28;19913;-84
2022/02/15 10:09:27;;;;;;;;;;;14.60;1.00;;;;;;5040467;28;19932;-84
2022/02/15 10:11:52;;;;;;;;;;;13.80;1.00;;;;;;5035064;28;19985;-85
2022/02/15 10:14:20;;;;;;;;;;;13.00;1.00;;;;;;5027419;28;19917;-83
2022/02/15 10:16:47;;;;;;;;;;;12.20;1.00;;;;;;5046301;28;19920;-83
2022/02/15 10:19:20;;;;;;;;;;;11.70;1.00;;;;;;5034537;28;19916;-83
2022/02/15 10:21:48;;;;;;;;;;;11.30;1.00;;;;;;5046719;28;19944;-84
2022/02/15 10:24:14;;;;;;;;;;;11.00;1.00;;;;;;5044388;28;20351;-84
2022/02/15 10:26:40;;;;;;;;;;;11.00;1.00;;;;;;5046221;28;20141;-84
2022/02/15 10:29:06;;;;;;;;;;;11.80;1.00;;;;;;5041578;28;19920;-84
2022/02/15 10:31:38;;;;;;;;;;;12.90;1.00;;;;;;5041582;28;19936;-84
2022/02/15 10:34:04;;;;;;;;;;;14.60;1.00;;;;;;5043668;28;19913;-83
2022/02/15 10:36:30;;;;;;;;;;;16.90;1.00;;;;;;5045725;28;19913;-82
2022/02/15 10:38:57;;;;;;;;;;;17.80;1.00;;;;;;5030334;28;19981;-81
2022/02/15 10:41:24;;;;;;;;;;;16.90;1.00;;;;;;5041130;28;19913;-81
2022/02/15 10:43:50;;;;;;;;;;;16.10;1.00;;;;;;5042942;28;20003;-81
2022/02/15 10:46:18;;;;;;;;;;;15.20;99.90;;;;;;5026025;28;19913;-83
2022/02/15 10:48:45;;;;;;;;;;;14.50;99.90;;;;;;5025799;28;19953;-84
2022/02/15 10:51:11;;;;;;;;;;;13.60;99.90;;;;;;5045939;28;20000;-85
2022/02/15 10:53:36;;;;;;;;;;;13.20;99.90;;;;;;5030075;28;19918;-84
2022/02/15 10:56:03;;;;;;;;;;;13.10;99.90;;;;;;5041034;28;19913;-84
2022/02/15 10:58:29;;;;;;;;;;;13.20;99.90;;;;;;5042601;28;19913;-83
2022/02/15 11:00:59;;;;;;;;;;;13.40;99.90;;;;;;5038547;28;19929;-84
2022/02/15 11:03:27;;;;;;;;;;;13.40;99.90;;;;;;5026608;28;19921;-83
2022/02/15 11:05:52;;;;;;;;;;;13.40;99.90;;;;;;5037622;28;19939;-83
2022/02/15 11:08:19;;;;;;;;;;;12.90;99.90;;;;;;5043339;28;19913;-83
2022/02/15 11:10:54;;;;;;;;;;;12.40;99.90;;;;;;5027771;28;19913;-83
2022/02/15 11:13:20;;;;;;;;;;;12.80;99.90;;;;;;5023593;28;19964;-85
2022/02/15 11:15:50;;;;;;;;;;;13.10;99.90;;;;;;5030759;28;19920;-84
2022/02/15 11:18:26;;;;;;;;;;;12.80;99.90;;;;;;5041009;28;19909;-84
2022/02/15 11:20:52;;;;;;;;;;;13.60;99.90;;;;;;5034911;28;19920;-84
2022/02/15 11:23:18;;;;;;;;;;;15.40;99.90;;;;;;5034483;28;19921;-82
2022/02/15 11:25:44;;;;;;;;;;;17.60;99.90;;;;;;5043208;28;19913;-83
2022/02/15 11:28:14;;;;;;;;;;;18.20;99.90;;;;;;5040500;28;20315;-82
2022/02/15 11:30:44;;;;;;;;;;;18.50;99.90;;;;;;5042808;28;20005;-80
2022/02/15 11:33:10;;;;;;;;;;;19.10;99.90;;;;;;5029706;28;19918;-82
2022/02/15 11:35:35;;;;;;;;;;;18.80;99.90;;;;;;5027365;28;19920;-81
2022/02/15 11:38:09;;;;;;;;;;;17.80;99.90;;;;;;5025192;28;19909;-83
2022/02/15 11:40:34;;;;;;;;;;;16.30;99.90;;;;;;5036165;28;19916;-82
2022/02/15 11:43:02;;;;;;;;;;;16.40;99.90;;;;;;5037805;28;19914;-82
2022/02/15 11:45:29;;;;;;;;;;;17.00;99.90;;;;;;5030464;28;19920;-83
2022/02/15 11:48:10;;;;;;;;;;;15.80;99.90;;;;;;5039703;28;19909;-82
2022/02/15 11:50:43;;;;;;;;;;;14.70;99.90;;;;;;5037923;28;19909;-82
2022/02/15 11:53:09;;;;;;;;;;;13.70;99.90;;;;;;5036803;28;19921;-82
2022/02/15 11:55:35;;;;;;;;;;;13.20;99.90;;;;;;5036323;28;19913;-83
2022/02/15 11:58:01;;;;;;;;;;;14.60;99.90;;;;;;5039124;28;20289;-83
2022/02/15 12:00:36;;;;;;;;;;;16.30;99.90;;;;;;5033792;28;19920;-82
2022/02/15 12:03:02;;;;;;;;;;;17.60;99.90;;;;;;5029583;28;19909;-82
2022/02/15 12:05:29;;;;;;;;;;;18.70;99.90;;;;;;5040341;28;19909;-82
2022/02/15 12:07:55;;;;;;;;;;;19.70;99.90;;;;;;5023136;28;19973;-80
2022/02/15 12:10:21;;;;;;;;;;;20.00;99.90;;;;;;5020261;28;19910;-79
2022/02/15 12:12:47;;;;;;;;;;;20.20;99.90;;;;;;5020046;28;20263;-80
2022/02/15 12:15:13;;;;;;;;;;;20.40;99.90;;;;;;5021207;28;19914;-81
2022/02/15 12:17:46;;;;;;;;;;;20.50;99.90;;;;;;5030714;28;19945;-80
2022/02/15 12:20:13;;;;;;;;;;;19.50;99.90;;;;;;5025070;28;19917;-80
2022/02/15 12:22:42;;;;;;;;;;;18.40;99.90;;;;;;5038475;28;20403;-80
2022/02/15 12:25:08;;;;;;;;;;;18.50;99.90;;;;;;5036099;28;19965;-79
2022/02/15 12:27:34;;;;;;;;;;;18.30;99.90;;;;;;5020169;28;19964;-82
2022/02/15 12:29:59;;;;;;;;;;;17.90;99.90;;;;;;5031888;28;19913;-82
2022/02/15 12:32:26;;;;;;;;;;;18.50;99.90;;;;;;5037923;28;19909;-82
2022/02/15 12:34:52;;;;;;;;;;;18.50;99.90;;;;;;5026014;28;19913;-82
2022/02/15 12:37:22;;;;;;;;;;;19.00;99.90;;;;;;5018231;28;19909;-82
2022/02/15 12:39:50;;;;;;;;;;;19.20;99.90;;;;;;5028183;28;19917;-82
2022/02/15 12:42:17;;;;;;;;;;;19.60;99.90;;;;;;5026439;28;19918;-81
2022/02/15 12:44:53;;;;;;;;;;;19.60;99.90;;;;;;5036509;28;19922;-82
2022/02/15 12:47:18;;;;;;;;;;;19.70;99.90;;;;;;5027455;28;19913;-82
2022/02/15 12:49:44;;;;;;;;;;;18.90;99.90;;;;;;5039612;28;19917;-82
2022/02/15 12:52:11;;;;;;;;;;;18.80;99.90;;;;;;5039335;28;19909;-83
2022/02/15 12:54:38;;;;;;;;;;;19.00;99.90;;;;;;5025845;28;19917;-82
2022/02/15 12:57:13;;;;;;;;;;;19.10;99.90;;;;;;5032620;28;19914;-82
2022/02/15 12:59:39;;;;;;;;;;;18.70;99.90;;;;;;5018047;28;19909;-82
2022/02/15 13:02:07;;;;;;;;;;;18.20;99.90;;;;;;5024221;28;20393;-82
2022/02/15 13:04:43;;;;;;;;;;;18.40;99.90;;;;;;5015895;28;19932;-82
2022/02/15 13:07:08;;;;;;;;;;;18.70;99.90;;;;;;5030005;28;19920;-83
2022/02/15 13:09:34;;;;;;;;;;;18.90;99.90;;;;;;5033408;28;19913;-82
2022/02/15 13:12:00;;;;;;;;;;;19.00;99.90;;;;;;5036896;28;20382;-82
2022/02/15 13:14:29;;;;;;;;;;;19.60;99.90;;;;;;5033585;28;19913;-82
2022/02/15 13:16:56;;;;;;;;;;;19.30;99.90;;;;;;5035801;28;20337;-83
2022/02/15 13:19:31;;;;;;;;;;;19.40;99.90;;;;;;5038730;28;19910;-82
2022/02/15 13:21:57;;;;;;;;;;;19.60;99.90;;;;;;5036995;28;19913;-82
2022/02/15 13:24:22;;;;;;;;;;;19.60;99.90;;;;;;5023612;28;19974;-82
2022/02/15 13:26:48;;;;;;;;;;;19.40;99.90;;;;;;5027543;28;19920;-83
2022/02/15 13:29:27;;;;;;;;;;;19.30;99.90;;;;;;5029872;28;19924;-82
2022/02/15 13:31:54;;;;;;;;;;;19.40;99.90;;;;;;5034994;28;19916;-82
2022/02/15 13:34:33;;;;;;;;;;;19.10;99.90;;;;;;5034619;28;20285;-81
2022/02/15 13:37:03;;;;;;;;;;;18.80;99.90;;;;;;5035343;28;20071;-82
2022/02/15 13:39:29;;;;;;;;;;;18.60;99.90;;;;;;5035521;28;19916;-82
2022/02/15 13:41:55;;;;;;;;;;;18.70;99.90;;;;;;5032514;28;19917;-82
2022/02/15 13:44:21;;;;;;;;;;;19.00;99.90;;;;;;5027449;28;19913;-82
2022/02/15 13:46:47;;;;;;;;;;;19.00;99.90;;;;;;5035481;28;19936;-82
2022/02/15 13:49:13;;;;;;;;;;;18.60;99.90;;;;;;5023010;28;19913;-82
2022/02/15 13:51:38;;;;;;;;;;;18.20;99.90;;;;;;5020197;28;19913;-81
2022/02/15 13:54:05;;;;;;;;;;;17.60;99.90;;;;;;5028816;28;19918;-82
2022/02/15 13:56:32;;;;;;;;;;;17.30;99.90;;;;;;5016743;28;19932;-81
2022/02/15 13:58:57;;;;;;;;;;;16.90;99.90;;;;;;5016121;28;19961;-81
2022/02/15 14:01:23;;;;;;;;;;;16.30;99.90;;;;;;5028804;28;19916;-81
2022/02/15 14:03:52;;;;;;;;;;;15.90;99.90;;;;;;5013890;28;19910;-82
2022/02/15 14:06:18;;;;;;;;;;;15.80;99.90;;;;;;5015071;28;19909;-82
2022/02/15 14:08:43;;;;;;;;;;;16.20;99.90;;;;;;5017361;28;20369;-81
2022/02/15 14:11:09;;;;;;;;;;;16.70;99.90;;;;;;5015152;28;19916;-82
2022/02/15 14:13:34;;;;;;;;;;;16.80;99.90;;;;;;5031339;28;19917;-81
2022/02/15 14:16:00;;;;;;;;;;;16.40;99.90;;;;;;5036394;28;19996;-80
2022/02/15 14:18:25;;;;;;;;;;;15.90;99.90;;;;;;5034273;28;19967;-81
2022/02/15 14:20:51;;;;;;;;;;;15.50;99.90;;;;;;5036159;28;19980;-81
2022/02/15 14:23:16;;;;;;;;;;;15.10;99.90;;;;;;5017237;28;19971;-81
2022/02/15 14:25:42;;;;;;;;;;;14.80;99.90;;;;;;5015995;28;20412;-81
2022/02/15 14:28:07;;;;;;;;;;;14.80;99.90;;;;;;5015769;28;19929;-82
2022/02/15 14:30:33;;;;;;;;;;;14.80;99.90;;;;;;5020161;28;19924;-81
2022/02/15 14:32:59;;;;;;;;;;;14.70;99.90;;;;;;5033529;28;19924;-81